createdAt,value
2017-08-07T00:00:26.849Z,52.48
2017-08-07T00:01:07.298Z,52.39
2017-08-07T00:01:47.752Z,52.48
2017-08-07T00:02:28.209Z,52.29
2017-08-07T00:03:08.659Z,52.19
2017-08-07T00:03:49.115Z,52.39
2017-08-07T00:04:29.572Z,52.48
2017-08-07T00:05:10.028Z,52.58
2017-08-07T00:05:50.471Z,52.67
2017-08-07T00:06:30.936Z,52.77
2017-08-07T00:07:11.396Z,52.8
2017-08-07T00:07:51.854Z,52.77
2017-08-07T00:08:32.306Z,52.67
2017-08-07T00:09:12.763Z,52.87
2017-08-07T00:09:53.219Z,52.87
2017-08-07T00:10:33.680Z,52.77
2017-08-07T00:11:14.130Z,52.77
2017-08-07T00:11:54.588Z,52.77
2017-08-07T00:12:35.042Z,52.97
2017-08-07T00:13:15.496Z,52.67
2017-08-07T00:13:55.950Z,52.51
2017-08-07T00:14:36.400Z,52.58
2017-08-07T00:15:16.929Z,52.87
2017-08-07T00:15:57.390Z,52.77
2017-08-07T00:16:37.846Z,52.97
2017-08-07T00:17:18.305Z,53.25
2017-08-07T00:17:58.758Z,53.25
2017-08-07T00:18:39.213Z,53.35
2017-08-07T00:19:19.667Z,53.38
2017-08-07T00:20:00.124Z,53.35
2017-08-07T00:20:40.584Z,52.77
2017-08-07T00:21:21.051Z,53.06
2017-08-07T00:22:01.498Z,53.06
2017-08-07T00:22:41.950Z,53.25
2017-08-07T00:23:22.404Z,53.16
2017-08-07T00:24:02.858Z,52.77
2017-08-07T00:24:43.308Z,52.89
2017-08-07T00:25:23.760Z,52.77
2017-08-07T00:26:04.213Z,52.97
2017-08-07T00:26:44.675Z,52.97
2017-08-07T00:27:25.130Z,52.97
2017-08-07T00:28:05.590Z,52.97
2017-08-07T00:28:46.044Z,53.06
2017-08-07T00:29:26.501Z,52.97
2017-08-07T00:30:06.959Z,52.97
2017-08-07T00:30:47.418Z,52.97
2017-08-07T00:31:27.868Z,53.16
2017-08-07T00:32:08.323Z,53.16
2017-08-07T00:32:48.799Z,53.35
2017-08-07T00:33:29.232Z,53.35
2017-08-07T00:34:09.692Z,53.93
2017-08-07T00:34:50.135Z,53.64
2017-08-07T00:35:30.578Z,53.74
2017-08-07T00:36:11.037Z,53.83
2017-08-07T00:36:51.497Z,53.64
2017-08-07T00:37:31.947Z,53.64
2017-08-07T00:38:12.403Z,53.74
2017-08-07T00:38:52.860Z,53.64
2017-08-07T00:39:33.316Z,53.64
2017-08-07T00:40:13.772Z,53.64
2017-08-07T00:40:54.231Z,53.55
2017-08-07T00:41:34.689Z,53.64
2017-08-07T00:42:15.144Z,53.74
2017-08-07T00:42:55.603Z,53.55
2017-08-07T00:43:36.077Z,53.93
2017-08-07T00:44:16.512Z,53.83
2017-08-07T00:44:56.974Z,54.22
2017-08-07T00:45:37.433Z,53.93
2017-08-07T00:46:17.887Z,54.13
2017-08-07T00:46:58.349Z,54.22
2017-08-07T00:47:38.807Z,54.22
2017-08-07T00:48:19.265Z,53.93
2017-08-07T00:48:59.723Z,53.93
2017-08-07T00:49:40.178Z,54.13
2017-08-07T00:50:20.635Z,54.22
2017-08-07T00:51:01.698Z,54.13
2017-08-07T00:51:42.150Z,54.03
2017-08-07T00:52:22.605Z,53.83
2017-08-07T00:53:03.062Z,53.83
2017-08-07T00:53:43.510Z,53.93
2017-08-07T00:54:23.961Z,53.64
2017-08-07T00:55:04.416Z,53.74
2017-08-07T00:55:44.867Z,54.03
2017-08-07T00:56:25.322Z,54.03
2017-08-07T00:57:05.779Z,54.03
2017-08-07T00:57:46.236Z,53.83
2017-08-07T00:58:26.700Z,54.03
2017-08-07T00:59:07.161Z,53.93
2017-08-07T00:59:47.612Z,53.83
2017-08-07T01:00:28.067Z,54.13
2017-08-07T01:01:08.522Z,54.13
2017-08-07T01:01:48.978Z,54.32
2017-08-07T01:02:29.433Z,54.32
2017-08-07T01:03:09.889Z,54.22
2017-08-07T01:03:50.340Z,54.13
2017-08-07T01:04:30.794Z,54.22
2017-08-07T01:05:11.249Z,54.32
2017-08-07T01:05:51.703Z,54.32
2017-08-07T01:06:32.154Z,54.32
2017-08-07T01:07:12.619Z,54.32
2017-08-07T01:07:53.073Z,54.41
2017-08-07T01:08:33.528Z,54.03
2017-08-07T01:09:13.981Z,54.22
2017-08-07T01:09:54.437Z,54.03
2017-08-07T01:10:34.895Z,54.03
2017-08-07T01:11:15.353Z,54.03
2017-08-07T01:11:55.811Z,54.22
2017-08-07T01:12:36.275Z,54.22
2017-08-07T01:13:16.730Z,54.22
2017-08-07T01:13:57.167Z,54.32
2017-08-07T01:14:37.648Z,54.13
2017-08-07T01:15:18.103Z,54.41
2017-08-07T01:15:58.574Z,54.41
2017-08-07T01:16:39.033Z,54.32
2017-08-07T01:17:19.509Z,54.22
2017-08-07T01:17:59.962Z,54.32
2017-08-07T01:18:40.420Z,54.22
2017-08-07T01:19:20.881Z,54.13
2017-08-07T01:20:01.341Z,54.13
2017-08-07T01:20:41.796Z,54.32
2017-08-07T01:21:22.259Z,54.61
2017-08-07T01:22:02.715Z,54.71
2017-08-07T01:22:43.175Z,54.61
2017-08-07T01:23:24.141Z,54.61
2017-08-07T01:24:04.597Z,54.41
2017-08-07T01:24:45.050Z,54.32
2017-08-07T01:25:25.504Z,54.51
2017-08-07T01:26:05.960Z,54.51
2017-08-07T01:26:46.415Z,54.99
2017-08-07T01:27:26.869Z,54.99
2017-08-07T01:28:07.329Z,55.09
2017-08-07T01:28:47.772Z,54.9
2017-08-07T01:29:28.238Z,54.9
2017-08-07T01:30:08.695Z,54.99
2017-08-07T01:30:49.155Z,55.09
2017-08-07T01:31:29.612Z,54.99
2017-08-07T01:32:10.071Z,54.99
2017-08-07T01:32:50.524Z,54.99
2017-08-07T01:33:30.978Z,55.09
2017-08-07T01:34:11.441Z,54.9
2017-08-07T01:34:51.898Z,54.9
2017-08-07T01:35:32.358Z,54.9
2017-08-07T01:36:12.833Z,54.61
2017-08-07T01:38:05.434Z,54.9
2017-08-07T01:38:45.890Z,54.9
2017-08-07T01:39:26.342Z,54.51
2017-08-07T01:40:06.796Z,55.09
2017-08-07T01:40:47.253Z,54.9
2017-08-07T01:41:27.715Z,54.99
2017-08-07T01:42:08.171Z,54.99
2017-08-07T01:42:48.629Z,54.9
2017-08-07T01:43:29.112Z,54.9
2017-08-07T01:44:09.546Z,54.99
2017-08-07T01:44:50.006Z,54.71
2017-08-07T01:45:30.458Z,54.8
2017-08-07T01:46:10.912Z,54.8
2017-08-07T01:46:51.365Z,54.99
2017-08-07T01:47:31.807Z,54.99
2017-08-07T01:48:12.262Z,54.99
2017-08-07T01:48:52.717Z,54.99
2017-08-07T01:49:33.172Z,54.9
2017-08-07T01:50:13.628Z,54.71
2017-08-07T01:50:54.077Z,54.51
2017-08-07T01:51:34.535Z,54.71
2017-08-07T01:52:14.993Z,54.8
2017-08-07T01:52:55.456Z,54.8
2017-08-07T01:53:35.905Z,54.71
2017-08-07T01:54:16.353Z,54.9
2017-08-07T01:54:56.848Z,54.99
2017-08-07T01:55:37.301Z,54.87
2017-08-07T01:56:17.754Z,54.8
2017-08-07T01:56:58.214Z,55.16
2017-08-07T01:57:38.682Z,55.19
2017-08-07T01:58:19.139Z,55.19
2017-08-07T01:58:59.598Z,54.87
2017-08-07T01:59:40.054Z,55.29
2017-08-07T02:00:20.515Z,55.16
2017-08-07T02:01:00.968Z,54.99
2017-08-07T02:01:41.428Z,55.09
2017-08-07T02:02:21.924Z,54.9
2017-08-07T02:03:02.387Z,55.07
2017-08-07T02:03:42.842Z,55.07
2017-08-07T02:04:23.302Z,55.19
2017-08-07T02:05:03.741Z,55.07
2017-08-07T02:05:44.209Z,55.45
2017-08-07T02:06:24.658Z,55.09
2017-08-07T02:07:05.109Z,55.57
2017-08-07T02:07:45.566Z,55.07
2017-08-07T02:08:26.022Z,55.29
2017-08-07T02:09:06.475Z,55.45
2017-08-07T02:09:46.934Z,55.29
2017-08-07T02:10:27.399Z,55.47
2017-08-07T02:11:07.858Z,55.45
2017-08-07T02:11:48.314Z,55.09
2017-08-07T02:12:28.773Z,55.35
2017-08-07T02:13:09.228Z,55.16
2017-08-07T02:13:49.689Z,55.35
2017-08-07T02:14:30.150Z,55.29
2017-08-07T02:15:10.606Z,55.29
2017-08-07T02:15:51.068Z,55.57
2017-08-07T02:16:31.528Z,55.45
2017-08-07T02:17:11.981Z,55.45
2017-08-07T02:17:52.442Z,55.35
2017-08-07T02:18:32.907Z,55.26
2017-08-07T02:19:13.365Z,55.26
2017-08-07T02:19:53.817Z,55.29
2017-08-07T02:20:34.274Z,55.07
2017-08-07T02:21:14.733Z,55.45
2017-08-07T02:21:55.186Z,55.35
2017-08-07T02:22:35.646Z,55.26
2017-08-07T02:23:16.106Z,55.35
2017-08-07T02:23:56.562Z,55.55
2017-08-07T02:24:37.015Z,55.26
2017-08-07T02:25:17.475Z,55.26
2017-08-07T02:25:57.928Z,55.26
2017-08-07T02:26:38.403Z,55.26
2017-08-07T02:27:18.861Z,55.16
2017-08-07T02:27:59.333Z,55.65
2017-08-07T02:28:39.792Z,55.35
2017-08-07T02:29:20.249Z,55.35
2017-08-07T02:30:00.711Z,55.67
2017-08-07T02:30:41.169Z,55.16
2017-08-07T02:31:21.630Z,55.74
2017-08-07T02:32:02.129Z,55.35
2017-08-07T02:32:42.585Z,55.74
2017-08-07T02:33:23.043Z,54.97
2017-08-07T02:34:03.503Z,55.07
2017-08-07T02:34:43.960Z,55.55
2017-08-07T02:35:24.423Z,55.55
2017-08-07T02:36:04.880Z,55.35
2017-08-07T02:36:45.339Z,55.35
2017-08-07T02:37:25.789Z,55.35
2017-08-07T02:38:06.247Z,55.26
2017-08-07T02:38:46.703Z,55.26
2017-08-07T02:39:27.145Z,55.93
2017-08-07T02:40:07.602Z,55.35
2017-08-07T02:40:48.055Z,55.65
2017-08-07T02:41:28.512Z,56.03
2017-08-07T02:42:08.968Z,55.83
2017-08-07T02:42:49.424Z,55.74
2017-08-07T02:43:29.878Z,55.55
2017-08-07T02:44:10.345Z,55.93
2017-08-07T02:44:50.789Z,55.74
2017-08-07T02:45:31.246Z,55.74
2017-08-07T02:46:11.702Z,55.65
2017-08-07T02:46:52.167Z,55.65
2017-08-07T02:47:32.627Z,55.74
2017-08-07T02:48:13.084Z,55.45
2017-08-07T02:48:53.546Z,55.55
2017-08-07T02:49:33.999Z,55.74
2017-08-07T02:50:14.453Z,55.45
2017-08-07T02:50:54.911Z,55.45
2017-08-07T02:51:35.367Z,55.65
2017-08-07T02:52:15.827Z,55.45
2017-08-07T02:52:56.277Z,55.93
2017-08-07T02:53:36.738Z,55.74
2017-08-07T02:54:17.226Z,55.93
2017-08-07T02:54:57.673Z,55.65
2017-08-07T02:55:38.130Z,56.03
2017-08-07T02:56:18.578Z,55.65
2017-08-07T02:56:59.042Z,55.74
2017-08-07T02:57:39.501Z,55.74
2017-08-07T02:58:19.958Z,55.74
2017-08-07T02:59:00.410Z,55.74
2017-08-07T02:59:40.878Z,55.74
2017-08-07T03:00:21.335Z,55.93
2017-08-07T03:01:01.809Z,55.74
2017-08-07T03:01:42.255Z,55.83
2017-08-07T03:02:22.712Z,55.83
2017-08-07T03:03:03.159Z,55.83
2017-08-07T03:03:43.610Z,55.74
2017-08-07T03:04:24.075Z,55.74
2017-08-07T03:05:04.523Z,55.83
2017-08-07T03:05:44.978Z,55.74
2017-08-07T03:06:25.426Z,55.74
2017-08-07T03:07:05.879Z,55.65
2017-08-07T03:07:46.337Z,55.74
2017-08-07T03:08:26.798Z,55.65
2017-08-07T03:09:07.246Z,55.55
2017-08-07T03:09:47.707Z,55.65
2017-08-07T03:10:28.160Z,55.74
2017-08-07T03:11:08.618Z,55.65
2017-08-07T03:11:49.070Z,55.65
2017-08-07T03:12:29.533Z,55.74
2017-08-07T03:13:09.980Z,55.74
2017-08-07T03:13:50.434Z,56.03
2017-08-07T03:14:30.882Z,56.03
2017-08-07T03:15:11.332Z,55.74
2017-08-07T03:15:51.787Z,55.74
2017-08-07T03:16:32.244Z,55.74
2017-08-07T03:17:12.699Z,55.93
2017-08-07T03:17:53.150Z,55.77
2017-08-07T03:18:33.609Z,55.74
2017-08-07T03:19:14.064Z,55.93
2017-08-07T03:19:54.521Z,55.93
2017-08-07T03:20:34.993Z,55.93
2017-08-07T03:21:15.439Z,55.93
2017-08-07T03:21:55.914Z,56.03
2017-08-07T03:22:36.367Z,55.74
2017-08-07T03:23:16.827Z,55.83
2017-08-07T03:23:57.282Z,55.83
2017-08-07T03:24:37.736Z,55.74
2017-08-07T03:25:18.202Z,55.83
2017-08-07T03:25:58.660Z,55.93
2017-08-07T03:26:39.110Z,55.93
2017-08-07T03:27:19.566Z,56.03
2017-08-07T03:28:00.025Z,56.03
2017-08-07T03:28:40.487Z,55.65
2017-08-07T03:29:20.943Z,55.74
2017-08-07T03:30:01.411Z,55.65
2017-08-07T03:30:41.866Z,55.74
2017-08-07T03:31:22.338Z,55.93
2017-08-07T03:32:02.791Z,55.65
2017-08-07T03:32:43.246Z,56.03
2017-08-07T03:33:23.704Z,55.74
2017-08-07T03:34:04.155Z,55.83
2017-08-07T03:34:44.611Z,55.55
2017-08-07T03:35:25.065Z,56.03
2017-08-07T03:36:05.517Z,56.22
2017-08-07T03:36:45.957Z,56.32
2017-08-07T03:37:26.398Z,56.32
2017-08-07T03:38:06.853Z,56.13
2017-08-07T03:38:47.304Z,56.32
2017-08-07T03:39:27.759Z,56.15
2017-08-07T03:40:08.403Z,56.22
2017-08-07T03:40:48.852Z,55.93
2017-08-07T03:41:29.307Z,56.22
2017-08-07T03:42:09.761Z,56.32
2017-08-07T03:42:50.208Z,56.03
2017-08-07T03:43:30.668Z,56.41
2017-08-07T03:44:11.105Z,56.32
2017-08-07T03:44:51.564Z,56.8
2017-08-07T03:45:32.014Z,56.71
2017-08-07T03:46:12.467Z,56.71
2017-08-07T03:46:52.917Z,56.54
2017-08-07T03:47:33.366Z,56.71
2017-08-07T03:48:13.815Z,56.51
2017-08-07T03:48:54.268Z,56.63
2017-08-07T03:49:34.724Z,56.61
2017-08-07T03:50:15.171Z,56.54
2017-08-07T03:50:55.615Z,56.8
2017-08-07T03:51:36.071Z,56.71
2017-08-07T03:52:16.544Z,56.51
2017-08-07T03:52:57.049Z,56.71
2017-08-07T03:53:37.453Z,56.54
2017-08-07T03:54:17.912Z,56.61
2017-08-07T03:54:58.369Z,56.63
2017-08-07T03:55:38.827Z,56.41
2017-08-07T03:56:19.291Z,56.61
2017-08-07T03:56:59.740Z,56.93
2017-08-07T03:57:40.190Z,56.83
2017-08-07T03:58:20.635Z,56.61
2017-08-07T03:59:01.091Z,56.63
2017-08-07T03:59:41.535Z,56.71
2017-08-07T04:00:21.994Z,56.13
2017-08-07T04:01:02.452Z,56.03
2017-08-07T04:01:42.892Z,56.32
2017-08-07T04:02:23.401Z,56.41
2017-08-07T04:03:03.857Z,56.45
2017-08-07T04:03:44.309Z,56.35
2017-08-07T04:04:24.759Z,56.05
2017-08-07T04:05:05.211Z,56.35
2017-08-07T04:05:45.663Z,55.87
2017-08-07T04:06:26.125Z,55.67
2017-08-07T04:07:06.570Z,55.96
2017-08-07T04:07:47.018Z,55.47
2017-08-07T04:08:27.472Z,55.67
2017-08-07T04:09:07.918Z,55.87
2017-08-07T04:09:48.367Z,55.96
2017-08-07T04:10:28.818Z,55.96
2017-08-07T04:11:09.288Z,55.47
2017-08-07T04:11:49.737Z,55.47
2017-08-07T04:12:30.217Z,55.38
2017-08-07T04:13:10.668Z,55.47
2017-08-07T04:13:51.121Z,55.38
2017-08-07T04:14:31.569Z,55.47
2017-08-07T04:15:12.023Z,54.9
2017-08-07T04:15:52.477Z,54.99
2017-08-07T04:16:32.933Z,54.71
2017-08-07T04:17:13.377Z,54.99
2017-08-07T04:17:53.849Z,54.99
2017-08-07T04:18:34.296Z,54.99
2017-08-07T04:19:14.735Z,54.9
2017-08-07T04:19:55.190Z,54.8
2017-08-07T04:20:35.640Z,54.99
2017-08-07T04:21:16.081Z,54.99
2017-08-07T04:21:56.519Z,54.99
2017-08-07T04:22:36.980Z,54.9
2017-08-07T04:23:17.428Z,54.51
2017-08-07T04:23:57.877Z,54.61
2017-08-07T04:24:38.322Z,54.71
2017-08-07T04:25:18.784Z,54.71
2017-08-07T04:25:59.233Z,54.13
2017-08-07T04:26:39.682Z,54.32
2017-08-07T04:27:20.140Z,54.22
2017-08-07T04:28:00.591Z,54.22
2017-08-07T04:28:41.034Z,54.13
2017-08-07T04:29:21.483Z,54.51
2017-08-07T04:30:01.937Z,54.22
2017-08-07T04:30:42.399Z,54.22
2017-08-07T04:31:22.851Z,54.22
2017-08-07T04:32:03.315Z,54.22
2017-08-07T04:32:43.771Z,54.22
2017-08-07T04:33:24.229Z,54.22
2017-08-07T04:34:04.676Z,54.22
2017-08-07T04:34:45.129Z,54.32
2017-08-07T04:35:25.581Z,54.13
2017-08-07T04:36:06.029Z,54.03
2017-08-07T04:36:46.495Z,54.22
2017-08-07T04:37:26.941Z,54.32
2017-08-07T04:38:07.395Z,54.32
2017-08-07T04:38:47.848Z,54.22
2017-08-07T04:39:28.311Z,54.22
2017-08-07T04:40:08.762Z,54.22
2017-08-07T04:40:49.218Z,54.22
2017-08-07T04:41:29.687Z,54.22
2017-08-07T04:42:10.133Z,54.13
2017-08-07T04:42:50.593Z,54.22
2017-08-07T04:43:31.046Z,54.41
2017-08-07T04:44:11.613Z,54.22
2017-08-07T04:44:52.072Z,54.41
2017-08-07T04:45:32.521Z,54.61
2017-08-07T04:46:12.975Z,54.41
2017-08-07T04:46:53.434Z,54.51
2017-08-07T04:47:33.890Z,54.61
2017-08-07T04:48:14.343Z,54.61
2017-08-07T04:48:54.792Z,54.61
2017-08-07T04:49:35.245Z,54.61
2017-08-07T04:50:15.701Z,54.32
2017-08-07T04:50:56.155Z,54.41
2017-08-07T04:51:36.626Z,54.13
2017-08-07T04:52:17.084Z,54.32
2017-08-07T04:52:57.530Z,54.22
2017-08-07T04:53:37.978Z,54.13
2017-08-07T04:54:18.434Z,54.32
2017-08-07T04:54:58.905Z,54.22
2017-08-07T04:55:39.331Z,54.13
2017-08-07T04:56:19.784Z,54.22
2017-08-07T04:57:00.237Z,54.41
2017-08-07T04:57:40.686Z,54.32
2017-08-07T04:58:21.141Z,54.32
2017-08-07T04:59:01.599Z,54.22
2017-08-07T04:59:42.049Z,54.22
2017-08-07T05:00:22.502Z,54.51
2017-08-07T05:01:02.954Z,54.32
2017-08-07T05:01:43.408Z,54.13
2017-08-07T05:02:23.862Z,54.22
2017-08-07T05:03:04.320Z,54.22
2017-08-07T05:03:44.776Z,54.22
2017-08-07T05:04:25.236Z,54.32
2017-08-07T05:05:05.696Z,54.51
2017-08-07T05:05:46.153Z,54.41
2017-08-07T05:06:26.615Z,54.32
2017-08-07T05:07:07.066Z,54.51
2017-08-07T05:07:47.536Z,55.09
2017-08-07T05:08:27.993Z,54.8
2017-08-07T05:09:08.447Z,54.99
2017-08-07T05:09:48.892Z,54.9
2017-08-07T05:10:29.346Z,54.99
2017-08-07T05:11:09.795Z,54.9
2017-08-07T05:11:50.243Z,54.9
2017-08-07T05:12:30.687Z,54.51
2017-08-07T05:13:11.169Z,55.09
2017-08-07T05:13:51.627Z,54.99
2017-08-07T05:14:32.084Z,55.09
2017-08-07T05:15:12.545Z,55.09
2017-08-07T05:15:52.996Z,54.9
2017-08-07T05:16:33.448Z,54.9
2017-08-07T05:17:13.903Z,54.9
2017-08-07T05:17:54.355Z,54.9
2017-08-07T05:18:34.812Z,54.99
2017-08-07T05:19:15.264Z,54.8
2017-08-07T05:19:55.720Z,54.99
2017-08-07T05:20:36.192Z,55.09
2017-08-07T05:21:16.649Z,54.8
2017-08-07T05:21:57.152Z,54.9
2017-08-07T05:22:37.573Z,54.9
2017-08-07T05:23:18.024Z,54.9
2017-08-07T05:23:58.475Z,54.9
2017-08-07T05:24:38.927Z,54.8
2017-08-07T05:25:19.395Z,54.8
2017-08-07T05:25:59.841Z,54.9
2017-08-07T05:26:40.291Z,54.99
2017-08-07T05:27:20.749Z,54.9
2017-08-07T05:28:01.204Z,54.99
2017-08-07T05:28:41.683Z,55.47
2017-08-07T05:29:22.139Z,55.09
2017-08-07T05:30:02.591Z,55.47
2017-08-07T05:30:43.048Z,55.47
2017-08-07T05:31:23.499Z,55.29
2017-08-07T05:32:03.959Z,55.57
2017-08-07T05:32:44.414Z,55.09
2017-08-07T05:33:24.872Z,55.29
2017-08-07T05:34:05.321Z,55.38
2017-08-07T05:34:45.774Z,55.38
2017-08-07T05:35:26.236Z,55.47
2017-08-07T05:36:06.683Z,55.38
2017-08-07T05:36:47.143Z,55.57
2017-08-07T05:37:27.620Z,55.57
2017-08-07T05:38:08.074Z,55.47
2017-08-07T05:38:48.530Z,55.38
2017-08-07T05:39:28.982Z,55.38
2017-08-07T05:40:09.438Z,55.38
2017-08-07T05:40:49.895Z,55.38
2017-08-07T05:41:30.348Z,55.38
2017-08-07T05:42:10.797Z,55.38
2017-08-07T05:42:51.259Z,55.38
2017-08-07T05:43:31.712Z,55.29
2017-08-07T05:44:12.159Z,55.57
2017-08-07T05:44:52.603Z,55.38
2017-08-07T05:45:33.057Z,55.38
2017-08-07T05:46:13.521Z,55.47
2017-08-07T05:46:53.979Z,55.57
2017-08-07T05:47:34.439Z,55.57
2017-08-07T05:48:14.891Z,55.38
2017-08-07T05:48:55.344Z,55.29
2017-08-07T05:49:35.798Z,55.38
2017-08-07T05:50:16.256Z,55.29
2017-08-07T05:50:56.703Z,55.31
2017-08-07T05:51:37.158Z,55.19
2017-08-07T05:52:17.623Z,55.38
2017-08-07T05:52:58.068Z,55.57
2017-08-07T05:53:38.524Z,55.31
2017-08-07T05:54:18.982Z,55.11
2017-08-07T05:54:59.437Z,55.11
2017-08-07T05:55:39.886Z,55.51
2017-08-07T05:56:20.339Z,55.41
2017-08-07T05:57:00.798Z,55.31
2017-08-07T05:57:41.253Z,55.38
2017-08-07T05:58:21.716Z,55.38
2017-08-07T05:59:02.225Z,55.11
2017-08-07T05:59:42.689Z,55.38
2017-08-07T06:00:23.152Z,55.21
2017-08-07T06:01:03.596Z,55.41
2017-08-07T06:01:44.048Z,55.41
2017-08-07T06:02:24.568Z,55.11
2017-08-07T06:03:05.030Z,55.11
2017-08-07T06:03:45.482Z,55.6
2017-08-07T06:04:25.938Z,55.57
2017-08-07T06:05:06.394Z,55.51
2017-08-07T06:05:46.850Z,55.51
2017-08-07T06:06:27.307Z,55.31
2017-08-07T06:07:07.761Z,55.41
2017-08-07T06:07:48.220Z,55.21
2017-08-07T06:08:28.671Z,55.31
2017-08-07T06:09:09.127Z,55.02
2017-08-07T06:09:49.579Z,55.6
2017-08-07T06:10:30.036Z,55.6
2017-08-07T06:11:10.482Z,55.02
2017-08-07T06:11:50.943Z,55.02
2017-08-07T06:12:31.390Z,55.41
2017-08-07T06:13:11.838Z,55.51
2017-08-07T06:13:52.287Z,55.11
2017-08-07T06:14:32.726Z,55.21
2017-08-07T06:15:13.169Z,55.11
2017-08-07T06:15:53.626Z,55.21
2017-08-07T06:16:34.082Z,55.21
2017-08-07T06:17:14.536Z,54.73
2017-08-07T06:17:55.002Z,54.73
2017-08-07T06:18:35.457Z,54.83
2017-08-07T06:19:15.901Z,54.73
2017-08-07T06:21:03.442Z,54.83
2017-08-07T06:21:43.896Z,55.21
2017-08-07T06:22:24.350Z,54.93
2017-08-07T06:23:04.803Z,54.93
2017-08-07T06:23:45.255Z,55.21
2017-08-07T06:24:25.707Z,55.31
2017-08-07T06:25:06.157Z,54.73
2017-08-07T06:25:46.607Z,55.02
2017-08-07T06:26:27.067Z,55.11
2017-08-07T06:27:07.516Z,55.21
2017-08-07T06:27:47.967Z,54.93
2017-08-07T06:28:28.420Z,54.93
2017-08-07T06:29:08.873Z,55.11
2017-08-07T06:29:49.317Z,55.21
2017-08-07T06:30:29.778Z,54.73
2017-08-07T06:31:10.224Z,54.93
2017-08-07T06:31:50.680Z,54.83
2017-08-07T06:32:31.127Z,55.02
2017-08-07T06:33:11.575Z,54.83
2017-08-07T06:33:52.027Z,54.93
2017-08-07T06:34:32.481Z,55.11
2017-08-07T06:35:12.935Z,55.02
2017-08-07T06:35:53.392Z,55.02
2017-08-07T06:36:33.855Z,55.11
2017-08-07T06:37:14.314Z,55.11
2017-08-07T06:37:54.766Z,54.93
2017-08-07T06:38:35.221Z,54.93
2017-08-07T06:39:15.682Z,54.93
2017-08-07T06:39:56.150Z,54.95
2017-08-07T06:40:36.608Z,54.95
2017-08-07T06:41:17.491Z,54.93
2017-08-07T06:41:57.941Z,55.05
2017-08-07T06:42:38.402Z,54.85
2017-08-07T06:43:18.866Z,54.75
2017-08-07T06:43:59.324Z,54.66
2017-08-07T06:44:39.784Z,55.05
2017-08-07T06:45:20.236Z,55.05
2017-08-07T06:46:00.700Z,55.15
2017-08-07T06:46:41.156Z,55.05
2017-08-07T06:47:21.601Z,55.05
2017-08-07T06:48:02.073Z,54.95
2017-08-07T06:48:42.516Z,55.05
2017-08-07T06:49:22.965Z,55.05
2017-08-07T06:50:03.424Z,55.15
2017-08-07T06:50:43.878Z,55.15
2017-08-07T06:51:24.338Z,55.05
2017-08-07T06:52:04.790Z,54.95
2017-08-07T06:52:45.246Z,55.05
2017-08-07T06:53:25.696Z,54.95
2017-08-07T06:54:06.153Z,54.85
2017-08-07T06:54:46.607Z,55.15
2017-08-07T06:55:27.056Z,55.15
2017-08-07T06:56:07.517Z,55.15
2017-08-07T06:56:47.980Z,54.95
2017-08-07T06:57:28.452Z,54.95
2017-08-07T06:58:08.897Z,54.85
2017-08-07T06:58:49.353Z,55.24
2017-08-07T06:59:29.809Z,55.24
2017-08-07T07:00:10.309Z,55.05
2017-08-07T07:00:50.762Z,54.57
2017-08-07T07:01:31.219Z,54.37
2017-08-07T07:02:11.673Z,54.37
2017-08-07T07:02:52.126Z,54.37
2017-08-07T07:03:32.584Z,54.66
2017-08-07T07:04:13.040Z,54.57
2017-08-07T07:04:53.495Z,54.75
2017-08-07T07:05:33.947Z,54.66
2017-08-07T07:06:14.399Z,54.37
2017-08-07T07:06:54.882Z,54.11
2017-08-07T07:07:35.344Z,54.21
2017-08-07T07:09:33.163Z,54.3
2017-08-07T07:10:14.548Z,54.47
2017-08-07T07:10:54.317Z,54.3
2017-08-07T07:11:34.621Z,54.39
2017-08-07T07:12:15.095Z,54.37
2017-08-07T07:12:55.648Z,54.11
2017-08-07T07:14:54.224Z,54.21
2017-08-07T07:15:34.710Z,54.21
2017-08-07T07:16:15.333Z,54.21
2017-08-07T07:16:55.786Z,54.21
2017-08-07T07:17:36.487Z,54.21
2017-08-07T07:18:16.993Z,54.11
2017-08-07T07:18:57.576Z,54.01
2017-08-07T07:19:38.029Z,53.72
2017-08-07T07:20:18.488Z,54.01
2017-08-07T07:20:58.927Z,54.01
2017-08-07T07:21:39.369Z,54.01
2017-08-07T07:22:19.821Z,54.01
2017-08-07T07:23:00.270Z,54.21
2017-08-07T07:23:40.864Z,54.01
2017-08-07T07:24:21.507Z,54.01
2017-08-07T07:25:01.956Z,54.21
2017-08-07T07:25:42.412Z,54.01
2017-08-07T07:26:22.851Z,53.72
2017-08-07T07:28:35.985Z,53.53
2017-08-07T07:29:16.535Z,53.63
2017-08-07T07:29:57.014Z,53.75
2017-08-07T07:30:37.469Z,53.63
2017-08-07T07:31:17.959Z,53.63
2017-08-07T07:31:58.417Z,53.72
2017-08-07T07:32:38.872Z,54.01
2017-08-07T07:33:19.317Z,53.81
2017-08-07T07:33:59.761Z,53.85
2017-08-07T07:34:40.192Z,53.36
2017-08-07T07:35:20.644Z,53.53
2017-08-07T07:36:01.081Z,53.55
2017-08-07T07:36:41.493Z,53.45
2017-08-07T07:37:21.966Z,53.43
2017-08-07T07:38:02.358Z,53.45
2017-08-07T07:38:42.828Z,53.07
2017-08-07T07:39:23.373Z,53.26
2017-08-07T07:40:03.750Z,53.17
2017-08-07T07:40:44.176Z,53.17
2017-08-07T07:41:24.609Z,53.07
2017-08-07T07:42:05.040Z,53.26
2017-08-07T07:42:45.553Z,53.36
2017-08-07T07:43:25.960Z,53.36
2017-08-07T07:44:06.385Z,53.26
2017-08-07T07:44:46.849Z,53.36
2017-08-07T07:45:27.289Z,52.97
2017-08-07T07:46:07.670Z,52.97
2017-08-07T07:46:48.110Z,52.78
2017-08-07T07:47:28.538Z,52.78
2017-08-07T07:48:08.950Z,52.78
2017-08-07T07:48:49.382Z,52.78
2017-08-07T07:49:29.790Z,52.97
2017-08-07T07:50:10.245Z,53
2017-08-07T07:50:50.706Z,52.97
2017-08-07T07:51:31.118Z,52.78
2017-08-07T07:52:11.502Z,52.8
2017-08-07T07:52:51.900Z,52.9
2017-08-07T07:53:32.327Z,52.78
2017-08-07T07:54:12.753Z,52.8
2017-08-07T07:54:53.153Z,52.71
2017-08-07T07:55:33.579Z,52.61
2017-08-07T07:56:14.045Z,52.71
2017-08-07T07:56:54.498Z,52.32
2017-08-07T07:57:34.960Z,52.61
2017-08-07T07:59:32.777Z,52.12
2017-08-07T08:00:13.229Z,52.51
2017-08-07T08:00:53.718Z,52.42
2017-08-07T08:01:34.379Z,52.32
2017-08-07T08:02:14.849Z,52.54
2017-08-07T08:02:55.286Z,52.71
2017-08-07T08:03:35.794Z,52.71
2017-08-07T08:04:16.244Z,52.42
2017-08-07T08:04:56.702Z,52.15
2017-08-07T08:05:37.161Z,52.32
2017-08-07T08:06:17.643Z,52.34
2017-08-07T08:06:58.093Z,52.34
2017-08-07T08:07:38.546Z,52.54
2017-08-07T08:08:18.997Z,52.54
2017-08-07T08:08:59.445Z,52.42
2017-08-07T08:09:39.891Z,52.54
2017-08-07T08:10:20.340Z,51.96
2017-08-07T08:11:00.790Z,52.06
2017-08-07T08:11:41.251Z,51.96
2017-08-07T08:12:21.709Z,51.86
2017-08-07T08:13:02.156Z,51.67
2017-08-07T08:13:42.613Z,51.76
2017-08-07T08:14:23.058Z,51.86
2017-08-07T08:15:03.512Z,51.96
2017-08-07T08:15:44.026Z,52.06
2017-08-07T08:16:24.476Z,51.96
2017-08-07T08:17:04.927Z,51.96
2017-08-07T08:17:45.383Z,52.06
2017-08-07T08:18:25.840Z,51.67
2017-08-07T08:19:06.314Z,51.57
2017-08-07T08:19:46.832Z,51.86
2017-08-07T08:20:27.295Z,51.86
2017-08-07T08:21:07.747Z,51.96
2017-08-07T08:21:48.204Z,51.69
2017-08-07T08:22:28.764Z,51.5
2017-08-07T08:23:09.224Z,51.37
2017-08-07T08:23:49.684Z,51.5
2017-08-07T08:24:30.141Z,51.4
2017-08-07T08:25:10.609Z,51.31
2017-08-07T08:25:51.091Z,51.79
2017-08-07T08:26:31.538Z,51.59
2017-08-07T08:27:11.997Z,51.89
2017-08-07T08:27:53.432Z,51.69
2017-08-07T08:28:33.881Z,51.59
2017-08-07T08:29:14.321Z,51.98
2017-08-07T08:29:54.773Z,51.31
2017-08-07T08:30:35.256Z,51.5
2017-08-07T08:31:15.724Z,51.21
2017-08-07T08:31:56.195Z,51.21
2017-08-07T08:32:36.615Z,51.11
2017-08-07T08:33:17.080Z,51.21
2017-08-07T08:33:57.604Z,51.01
2017-08-07T08:34:38.103Z,51.01
2017-08-07T08:35:18.548Z,50.92
2017-08-07T08:35:59.000Z,51.01
2017-08-07T08:36:39.455Z,50.62
2017-08-07T08:37:19.896Z,50.82
2017-08-07T08:38:00.368Z,50.82
2017-08-07T08:38:40.859Z,51.11
2017-08-07T08:39:21.322Z,51.11
2017-08-07T08:40:01.775Z,51.11
2017-08-07T08:40:43.209Z,51.04
2017-08-07T08:41:23.628Z,50.94
2017-08-07T08:42:04.029Z,50.65
2017-08-07T08:42:44.432Z,50.74
2017-08-07T08:43:24.827Z,50.74
2017-08-07T08:44:05.253Z,50.84
2017-08-07T08:44:45.689Z,50.56
2017-08-07T08:45:26.122Z,50.94
2017-08-07T08:46:06.628Z,50.65
2017-08-07T08:46:46.962Z,50.74
2017-08-07T08:47:27.398Z,50.56
2017-08-07T08:48:07.813Z,50.74
2017-08-07T08:48:48.270Z,51.04
2017-08-07T08:49:28.725Z,50.94
2017-08-07T08:50:09.197Z,50.46